sensor_id;sensor_type;location;lat;lon;timestamp;P1;durP1;ratioP1;P2;durP2;ratioP2
51066;SDS011;37112;45.892;-123.962;2023-08-08T00:00:33;11.60;;;0.90;;
51066;SDS011;37112;45.892;-123.962;2023-08-08T00:03:06;15.70;;;1.90;;
51066;SDS011;37112;45.892;-123.962;2023-08-08T00:05:19;9.50;;;2.80;;
51066;SDS011;37112;45.892;-123.962;2023-08-08T00:07:32;7.00;;;1.70;;
51066;SDS011;37112;45.892;-123.962;2023-08-08T00:09:45;11.90;;;2.90;;
51066;SDS011;37112;45.892;-123.962;2023-08-08T00:11:58;12.80;;;1.90;;
51066;SDS011;37112;45.892;-123.962;2023-08-08T00:14:11;16.60;;;2.20;;
51066;SDS011;37112;45.892;-123.962;2023-08-08T00:16:24;9.50;;;1.70;;
51066;SDS011;37112;45.892;-123.962;2023-08-08T00:18:36;12.70;;;2.60;;
51066;SDS011;37112;45.892;-123.962;2023-08-08T00:20:49;17.00;;;3.30;;
51066;SDS011;37112;45.892;-123.962;2023-08-08T00:23:03;7.20;;;1.80;;
51066;SDS011;37112;45.892;-123.962;2023-08-08T00:25:16;14.80;;;2.10;;
51066;SDS011;37112;45.892;-123.962;2023-08-08T00:27:28;9.40;;;1.60;;
51066;SDS011;37112;45.892;-123.962;2023-08-08T00:29:41;10.20;;;1.10;;
51066;SDS011;37112;45.892;-123.962;2023-08-08T00:31:55;13.40;;;2.70;;
51066;SDS011;37112;45.892;-123.962;2023-08-08T00:34:08;10.00;;;1.60;;
51066;SDS011;37112;45.892;-123.962;2023-08-08T00:36:21;9.00;;;1.90;;
51066;SDS011;37112;45.892;-123.962;2023-08-08T00:38:34;4.10;;;1.00;;
51066;SDS011;37112;45.892;-123.962;2023-08-08T00:40:46;7.40;;;1.40;;
51066;SDS011;37112;45.892;-123.962;2023-08-08T00:43:00;10.10;;;1.50;;
51066;SDS011;37112;45.892;-123.962;2023-08-08T00:45:13;9.90;;;1.60;;
51066;SDS011;37112;45.892;-123.962;2023-08-08T00:47:27;8.40;;;2.00;;
51066;SDS011;37112;45.892;-123.962;2023-08-08T00:49:40;10.30;;;1.90;;
51066;SDS011;37112;45.892;-123.962;2023-08-08T00:51:54;16.80;;;2.70;;
51066;SDS011;37112;45.892;-123.962;2023-08-08T00:54:07;12.00;;;1.50;;
51066;SDS011;37112;45.892;-123.962;2023-08-08T00:56:21;9.10;;;2.40;;
51066;SDS011;37112;45.892;-123.962;2023-08-08T00:58:34;8.50;;;1.50;;
51066;SDS011;37112;45.892;-123.962;2023-08-08T01:00:47;15.40;;;2.10;;
51066;SDS011;37112;45.892;-123.962;2023-08-08T01:03:02;13.90;;;3.20;;
51066;SDS011;37112;45.892;-123.962;2023-08-08T01:05:16;8.70;;;1.70;;
51066;SDS011;37112;45.892;-123.962;2023-08-08T01:07:32;7.80;;;1.80;;
51066;SDS011;37112;45.892;-123.962;2023-08-08T01:09:54;11.90;;;2.70;;
51066;SDS011;37112;45.892;-123.962;2023-08-08T01:12:14;11.80;;;1.80;;
51066;SDS011;37112;45.892;-123.962;2023-08-08T01:14:29;15.60;;;2.70;;
51066;SDS011;37112;45.892;-123.962;2023-08-08T01:16:44;11.50;;;1.70;;
51066;SDS011;37112;45.892;-123.962;2023-08-08T01:18:57;11.90;;;2.00;;
51066;SDS011;37112;45.892;-123.962;2023-08-08T01:21:11;18.80;;;3.50;;
51066;SDS011;37112;45.892;-123.962;2023-08-08T01:23:28;15.60;;;3.50;;
51066;SDS011;37112;45.892;-123.962;2023-08-08T01:25:44;11.30;;;2.80;;
51066;SDS011;37112;45.892;-123.962;2023-08-08T01:27:59;14.10;;;2.10;;
51066;SDS011;37112;45.892;-123.962;2023-08-08T01:30:13;22.00;;;4.20;;
51066;SDS011;37112;45.892;-123.962;2023-08-08T01:32:26;13.10;;;2.90;;
51066;SDS011;37112;45.892;-123.962;2023-08-08T01:34:39;15.80;;;2.60;;
51066;SDS011;37112;45.892;-123.962;2023-08-08T01:36:57;14.20;;;1.90;;
51066;SDS011;37112;45.892;-123.962;2023-08-08T01:39:17;12.70;;;1.70;;
51066;SDS011;37112;45.892;-123.962;2023-08-08T01:41:35;12.50;;;2.00;;
51066;SDS011;37112;45.892;-123.962;2023-08-08T01:43:52;9.50;;;1.90;;
51066;SDS011;37112;45.892;-123.962;2023-08-08T01:46:08;11.70;;;2.20;;
51066;SDS011;37112;45.892;-123.962;2023-08-08T01:48:21;23.70;;;4.30;;
51066;SDS011;37112;45.892;-123.962;2023-08-08T01:50:34;12.70;;;2.30;;
51066;SDS011;37112;45.892;-123.962;2023-08-08T01:52:48;24.60;;;2.90;;
51066;SDS011;37112;45.892;-123.962;2023-08-08T01:55:01;16.30;;;1.90;;
51066;SDS011;37112;45.892;-123.962;2023-08-08T01:57:15;12.40;;;2.40;;
51066;SDS011;37112;45.892;-123.962;2023-08-08T01:59:28;11.20;;;2.00;;
51066;SDS011;37112;45.892;-123.962;2023-08-08T02:01:41;13.50;;;2.40;;
51066;SDS011;37112;45.892;-123.962;2023-08-08T02:03:56;17.80;;;2.30;;
51066;SDS011;37112;45.892;-123.962;2023-08-08T02:06:10;11.20;;;2.20;;
51066;SDS011;37112;45.892;-123.962;2023-08-08T02:08:23;14.00;;;2.50;;
51066;SDS011;37112;45.892;-123.962;2023-08-08T02:10:35;20.80;;;3.00;;
51066;SDS011;37112;45.892;-123.962;2023-08-08T02:12:48;20.30;;;2.10;;
51066;SDS011;37112;45.892;-123.962;2023-08-08T02:15:01;16.10;;;2.70;;
51066;SDS011;37112;45.892;-123.962;2023-08-08T02:17:14;4.10;;;1.20;;
51066;SDS011;37112;45.892;-123.962;2023-08-08T02:19:27;12.20;;;3.00;;
51066;SDS011;37112;45.892;-123.962;2023-08-08T02:21:40;9.50;;;2.20;;
51066;SDS011;37112;45.892;-123.962;2023-08-08T02:23:55;6.50;;;1.70;;
51066;SDS011;37112;45.892;-123.962;2023-08-08T02:26:08;17.80;;;2.40;;
51066;SDS011;37112;45.892;-123.962;2023-08-08T02:28:20;3.30;;;1.20;;
51066;SDS011;37112;45.892;-123.962;2023-08-08T02:30:33;6.90;;;1.60;;
51066;SDS011;37112;45.892;-123.962;2023-08-08T02:32:48;9.30;;;1.60;;
51066;SDS011;37112;45.892;-123.962;2023-08-08T02:35:01;15.40;;;2.30;;
51066;SDS011;37112;45.892;-123.962;2023-08-08T02:37:15;13.40;;;2.60;;
51066;SDS011;37112;45.892;-123.962;2023-08-08T02:39:31;16.70;;;4.50;;
51066;SDS011;37112;45.892;-123.962;2023-08-08T02:41:44;10.40;;;2.00;;
51066;SDS011;37112;45.892;-123.962;2023-08-08T02:43:57;11.50;;;1.90;;
51066;SDS011;37112;45.892;-123.962;2023-08-08T02:46:10;6.50;;;1.60;;
51066;SDS011;37112;45.892;-123.962;2023-08-08T02:48:23;12.80;;;2.70;;
51066;SDS011;37112;45.892;-123.962;2023-08-08T02:50:36;9.90;;;2.10;;
51066;SDS011;37112;45.892;-123.962;2023-08-08T02:52:49;5.80;;;1.40;;
51066;SDS011;37112;45.892;-123.962;2023-08-08T02:55:04;11.20;;;1.70;;
51066;SDS011;37112;45.892;-123.962;2023-08-08T02:57:18;9.80;;;1.90;;
51066;SDS011;37112;45.892;-123.962;2023-08-08T02:59:32;11.70;;;2.20;;
51066;SDS011;37112;45.892;-123.962;2023-08-08T03:01:46;15.10;;;1.90;;
51066;SDS011;37112;45.892;-123.962;2023-08-08T03:03:58;7.10;;;2.10;;
51066;SDS011;37112;45.892;-123.962;2023-08-08T03:06:11;10.80;;;1.40;;
51066;SDS011;37112;45.892;-123.962;2023-08-08T03:08:29;8.30;;;1.70;;
51066;SDS011;37112;45.892;-123.962;2023-08-08T03:10:44;6.50;;;1.00;;
51066;SDS011;37112;45.892;-123.962;2023-08-08T03:12:57;8.90;;;1.60;;
51066;SDS011;37112;45.892;-123.962;2023-08-08T03:15:11;14.90;;;4.00;;
51066;SDS011;37112;45.892;-123.962;2023-08-08T03:17:25;12.80;;;3.10;;
51066;SDS011;37112;45.892;-123.962;2023-08-08T03:19:39;13.40;;;2.30;;
51066;SDS011;37112;45.892;-123.962;2023-08-08T03:21:53;14.40;;;1.80;;
51066;SDS011;37112;45.892;-123.962;2023-08-08T03:24:07;13.10;;;1.60;;
51066;SDS011;37112;45.892;-123.962;2023-08-08T03:26:21;16.50;;;3.50;;
51066;SDS011;37112;45.892;-123.962;2023-08-08T03:28:34;19.40;;;3.50;;
51066;SDS011;37112;45.892;-123.962;2023-08-08T03:30:48;15.40;;;2.50;;
51066;SDS011;37112;45.892;-123.962;2023-08-08T03:33:01;11.00;;;2.30;;
51066;SDS011;37112;45.892;-123.962;2023-08-08T03:35:17;21.20;;;3.60;;
51066;SDS011;37112;45.892;-123.962;2023-08-08T03:37:31;9.90;;;3.10;;
51066;SDS011;37112;45.892;-123.962;2023-08-08T03:39:44;12.00;;;2.40;;
51066;SDS011;37112;45.892;-123.962;2023-08-08T03:41:57;9.70;;;2.80;;
51066;SDS011;37112;45.892;-123.962;2023-08-08T03:44:10;12.10;;;3.80;;
51066;SDS011;37112;45.892;-123.962;2023-08-08T03:46:23;18.00;;;3.40;;
51066;SDS011;37112;45.892;-123.962;2023-08-08T03:48:36;16.10;;;3.90;;
51066;SDS011;37112;45.892;-123.962;2023-08-08T03:50:49;14.50;;;3.30;;
51066;SDS011;37112;45.892;-123.962;2023-08-08T03:53:02;6.80;;;2.70;;
51066;SDS011;37112;45.892;-123.962;2023-08-08T03:55:15;3.60;;;1.10;;
51066;SDS011;37112;45.892;-123.962;2023-08-08T03:57:28;4.40;;;0.90;;
51066;SDS011;37112;45.892;-123.962;2023-08-08T03:59:41;3.40;;;0.80;;
51066;SDS011;37112;45.892;-123.962;2023-08-08T04:01:54;3.00;;;0.80;;
51066;SDS011;37112;45.892;-123.962;2023-08-08T04:04:07;1.20;;;0.60;;
51066;SDS011;37112;45.892;-123.962;2023-08-08T04:06:20;2.90;;;0.70;;
51066;SDS011;37112;45.892;-123.962;2023-08-08T04:08:33;3.90;;;0.70;;
51066;SDS011;37112;45.892;-123.962;2023-08-08T04:10:47;4.20;;;0.70;;
51066;SDS011;37112;45.892;-123.962;2023-08-08T04:13:00;1.20;;;0.40;;
51066;SDS011;37112;45.892;-123.962;2023-08-08T04:15:14;3.00;;;0.60;;
51066;SDS011;37112;45.892;-123.962;2023-08-08T04:17:28;1.00;;;0.60;;
51066;SDS011;37112;45.892;-123.962;2023-08-08T04:19:41;1.90;;;0.60;;
51066;SDS011;37112;45.892;-123.962;2023-08-08T04:21:54;1.00;;;0.60;;
51066;SDS011;37112;45.892;-123.962;2023-08-08T04:24:07;1.70;;;0.70;;
51066;SDS011;37112;45.892;-123.962;2023-08-08T04:26:21;0.90;;;0.80;;
51066;SDS011;37112;45.892;-123.962;2023-08-08T04:28:34;1.20;;;0.50;;
51066;SDS011;37112;45.892;-123.962;2023-08-08T04:30:47;3.90;;;0.50;;
51066;SDS011;37112;45.892;-123.962;2023-08-08T04:33:01;0.70;;;0.50;;
51066;SDS011;37112;45.892;-123.962;2023-08-08T04:35:16;2.20;;;0.60;;
51066;SDS011;37112;45.892;-123.962;2023-08-08T04:37:30;1.20;;;0.50;;
51066;SDS011;37112;45.892;-123.962;2023-08-08T04:39:44;1.20;;;0.50;;
51066;SDS011;37112;45.892;-123.962;2023-08-08T04:41:56;1.50;;;0.50;;
51066;SDS011;37112;45.892;-123.962;2023-08-08T04:44:10;0.50;;;0.50;;
51066;SDS011;37112;45.892;-123.962;2023-08-08T04:46:23;1.20;;;0.70;;
51066;SDS011;37112;45.892;-123.962;2023-08-08T04:48:36;0.70;;;0.60;;
51066;SDS011;37112;45.892;-123.962;2023-08-08T04:50:49;1.30;;;0.50;;
51066;SDS011;37112;45.892;-123.962;2023-08-08T04:53:02;0.70;;;0.40;;
51066;SDS011;37112;45.892;-123.962;2023-08-08T04:55:15;1.80;;;0.80;;
51066;SDS011;37112;45.892;-123.962;2023-08-08T04:57:28;2.00;;;0.60;;
51066;SDS011;37112;45.892;-123.962;2023-08-08T04:59:42;1.70;;;0.80;;
51066;SDS011;37112;45.892;-123.962;2023-08-08T05:01:54;1.20;;;0.60;;
51066;SDS011;37112;45.892;-123.962;2023-08-08T05:04:08;0.80;;;0.50;;
51066;SDS011;37112;45.892;-123.962;2023-08-08T05:06:21;0.60;;;0.60;;
51066;SDS011;37112;45.892;-123.962;2023-08-08T05:08:33;1.50;;;0.30;;
51066;SDS011;37112;45.892;-123.962;2023-08-08T05:10:46;1.20;;;0.40;;
51066;SDS011;37112;45.892;-123.962;2023-08-08T05:12:59;0.80;;;0.40;;
51066;SDS011;37112;45.892;-123.962;2023-08-08T05:15:12;1.60;;;0.70;;
51066;SDS011;37112;45.892;-123.962;2023-08-08T05:17:25;1.10;;;0.40;;
51066;SDS011;37112;45.892;-123.962;2023-08-08T05:19:40;1.40;;;0.70;;
51066;SDS011;37112;45.892;-123.962;2023-08-08T05:21:52;40.70;;;9.70;;
51066;SDS011;37112;45.892;-123.962;2023-08-08T05:24:06;37.00;;;10.30;;
51066;SDS011;37112;45.892;-123.962;2023-08-08T05:26:19;29.80;;;7.80;;
51066;SDS011;37112;45.892;-123.962;2023-08-08T05:28:32;38.00;;;9.30;;
51066;SDS011;37112;45.892;-123.962;2023-08-08T05:30:46;61.40;;;14.70;;
51066;SDS011;37112;45.892;-123.962;2023-08-08T05:32:59;34.50;;;8.50;;
51066;SDS011;37112;45.892;-123.962;2023-08-08T05:35:13;27.30;;;6.30;;
51066;SDS011;37112;45.892;-123.962;2023-08-08T05:37:26;19.50;;;5.00;;
51066;SDS011;37112;45.892;-123.962;2023-08-08T05:39:39;20.80;;;5.20;;
51066;SDS011;37112;45.892;-123.962;2023-08-08T05:41:52;20.10;;;6.00;;
51066;SDS011;37112;45.892;-123.962;2023-08-08T05:44:05;27.30;;;5.50;;
51066;SDS011;37112;45.892;-123.962;2023-08-08T05:46:19;28.30;;;5.70;;
51066;SDS011;37112;45.892;-123.962;2023-08-08T05:48:31;26.70;;;5.90;;
51066;SDS011;37112;45.892;-123.962;2023-08-08T05:50:44;19.40;;;5.70;;
51066;SDS011;37112;45.892;-123.962;2023-08-08T05:52:57;18.60;;;4.70;;
51066;SDS011;37112;45.892;-123.962;2023-08-08T05:55:10;21.80;;;5.30;;
51066;SDS011;37112;45.892;-123.962;2023-08-08T05:57:22;18.40;;;3.70;;
51066;SDS011;37112;45.892;-123.962;2023-08-08T05:59:35;22.50;;;6.20;;
51066;SDS011;37112;45.892;-123.962;2023-08-08T06:01:48;25.80;;;9.30;;
51066;SDS011;37112;45.892;-123.962;2023-08-08T06:04:00;13.00;;;2.70;;
51066;SDS011;37112;45.892;-123.962;2023-08-08T06:06:13;21.70;;;7.40;;
51066;SDS011;37112;45.892;-123.962;2023-08-08T06:08:27;22.80;;;6.30;;
51066;SDS011;37112;45.892;-123.962;2023-08-08T06:10:41;51.80;;;12.70;;
51066;SDS011;37112;45.892;-123.962;2023-08-08T06:12:53;40.70;;;12.40;;
51066;SDS011;37112;45.892;-123.962;2023-08-08T06:15:07;48.70;;;11.50;;
51066;SDS011;37112;45.892;-123.962;2023-08-08T06:17:21;28.20;;;7.10;;
51066;SDS011;37112;45.892;-123.962;2023-08-08T06:19:34;30.10;;;7.40;;
51066;SDS011;37112;45.892;-123.962;2023-08-08T06:21:48;31.50;;;8.00;;
51066;SDS011;37112;45.892;-123.962;2023-08-08T06:24:01;27.60;;;6.70;;
51066;SDS011;37112;45.892;-123.962;2023-08-08T06:26:14;22.80;;;6.80;;
51066;SDS011;37112;45.892;-123.962;2023-08-08T06:28:28;29.30;;;5.90;;
51066;SDS011;37112;45.892;-123.962;2023-08-08T06:30:42;20.90;;;5.00;;
51066;SDS011;37112;45.892;-123.962;2023-08-08T06:32:54;23.50;;;6.10;;
51066;SDS011;37112;45.892;-123.962;2023-08-08T06:35:11;26.60;;;5.30;;
51066;SDS011;37112;45.892;-123.962;2023-08-08T06:37:24;29.60;;;6.20;;
51066;SDS011;37112;45.892;-123.962;2023-08-08T06:39:38;15.30;;;4.10;;
51066;SDS011;37112;45.892;-123.962;2023-08-08T06:41:50;38.30;;;8.30;;
51066;SDS011;37112;45.892;-123.962;2023-08-08T06:44:10;42.50;;;8.60;;
51066;SDS011;37112;45.892;-123.962;2023-08-08T06:46:23;46.30;;;9.30;;
51066;SDS011;37112;45.892;-123.962;2023-08-08T06:48:37;69.10;;;10.40;;
51066;SDS011;37112;45.892;-123.962;2023-08-08T06:50:52;46.10;;;10.80;;
51066;SDS011;37112;45.892;-123.962;2023-08-08T06:53:05;53.50;;;8.50;;
51066;SDS011;37112;45.892;-123.962;2023-08-08T06:55:18;38.60;;;7.40;;
51066;SDS011;37112;45.892;-123.962;2023-08-08T06:57:31;29.30;;;4.90;;
51066;SDS011;37112;45.892;-123.962;2023-08-08T06:59:45;34.90;;;7.00;;
51066;SDS011;37112;45.892;-123.962;2023-08-08T07:01:58;39.80;;;7.90;;
51066;SDS011;37112;45.892;-123.962;2023-08-08T07:04:12;27.30;;;4.40;;
51066;SDS011;37112;45.892;-123.962;2023-08-08T07:06:25;41.70;;;6.90;;
51066;SDS011;37112;45.892;-123.962;2023-08-08T07:08:38;43.90;;;6.70;;
51066;SDS011;37112;45.892;-123.962;2023-08-08T07:10:51;25.40;;;4.50;;
51066;SDS011;37112;45.892;-123.962;2023-08-08T07:13:04;29.10;;;3.70;;
51066;SDS011;37112;45.892;-123.962;2023-08-08T07:15:17;19.00;;;4.00;;
51066;SDS011;37112;45.892;-123.962;2023-08-08T07:17:29;20.60;;;4.60;;
51066;SDS011;37112;45.892;-123.962;2023-08-08T07:19:42;18.90;;;2.90;;
51066;SDS011;37112;45.892;-123.962;2023-08-08T07:21:55;16.70;;;3.30;;
51066;SDS011;37112;45.892;-123.962;2023-08-08T07:24:09;7.80;;;1.60;;
51066;SDS011;37112;45.892;-123.962;2023-08-08T07:26:22;4.40;;;0.80;;
51066;SDS011;37112;45.892;-123.962;2023-08-08T07:28:35;8.90;;;1.00;;
51066;SDS011;37112;45.892;-123.962;2023-08-08T07:30:48;2.00;;;0.70;;
51066;SDS011;37112;45.892;-123.962;2023-08-08T07:33:01;39.40;;;9.30;;
51066;SDS011;37112;45.892;-123.962;2023-08-08T07:35:14;29.90;;;5.40;;
51066;SDS011;37112;45.892;-123.962;2023-08-08T07:37:27;23.60;;;4.90;;
51066;SDS011;37112;45.892;-123.962;2023-08-08T07:39:39;24.10;;;4.80;;
51066;SDS011;37112;45.892;-123.962;2023-08-08T07:41:52;22.20;;;4.90;;
51066;SDS011;37112;45.892;-123.962;2023-08-08T07:44:06;29.40;;;4.70;;
51066;SDS011;37112;45.892;-123.962;2023-08-08T07:46:19;18.10;;;3.90;;
51066;SDS011;37112;45.892;-123.962;2023-08-08T07:48:32;20.50;;;3.60;;
51066;SDS011;37112;45.892;-123.962;2023-08-08T07:50:45;16.80;;;3.20;;
51066;SDS011;37112;45.892;-123.962;2023-08-08T07:52:58;10.70;;;1.60;;
51066;SDS011;37112;45.892;-123.962;2023-08-08T07:55:11;12.60;;;3.10;;
51066;SDS011;37112;45.892;-123.962;2023-08-08T07:57:26;14.10;;;2.50;;
51066;SDS011;37112;45.892;-123.962;2023-08-08T07:59:41;17.70;;;3.30;;
51066;SDS011;37112;45.892;-123.962;2023-08-08T08:01:54;24.80;;;4.50;;
51066;SDS011;37112;45.892;-123.962;2023-08-08T08:04:09;28.60;;;5.60;;
51066;SDS011;37112;45.892;-123.962;2023-08-08T08:06:22;31.70;;;5.80;;
51066;SDS011;37112;45.892;-123.962;2023-08-08T08:08:35;27.60;;;4.60;;
51066;SDS011;37112;45.892;-123.962;2023-08-08T08:10:48;15.30;;;2.30;;
51066;SDS011;37112;45.892;-123.962;2023-08-08T08:13:01;8.60;;;2.10;;
51066;SDS011;37112;45.892;-123.962;2023-08-08T08:15:14;19.90;;;4.00;;
51066;SDS011;37112;45.892;-123.962;2023-08-08T08:17:27;21.50;;;3.80;;
51066;SDS011;37112;45.892;-123.962;2023-08-08T08:19:41;20.40;;;2.90;;
51066;SDS011;37112;45.892;-123.962;2023-08-08T08:21:53;9.00;;;2.00;;
51066;SDS011;37112;45.892;-123.962;2023-08-08T08:24:07;8.40;;;1.40;;
51066;SDS011;37112;45.892;-123.962;2023-08-08T08:26:21;7.00;;;1.40;;
51066;SDS011;37112;45.892;-123.962;2023-08-08T08:28:35;6.10;;;1.50;;
51066;SDS011;37112;45.892;-123.962;2023-08-08T08:30:49;1.50;;;0.60;;
51066;SDS011;37112;45.892;-123.962;2023-08-08T08:33:03;1.20;;;0.70;;
51066;SDS011;37112;45.892;-123.962;2023-08-08T08:35:16;1.30;;;0.60;;
51066;SDS011;37112;45.892;-123.962;2023-08-08T08:37:30;1.80;;;0.60;;
51066;SDS011;37112;45.892;-123.962;2023-08-08T08:39:43;0.60;;;0.50;;
51066;SDS011;37112;45.892;-123.962;2023-08-08T08:41:57;0.50;;;0.50;;
51066;SDS011;37112;45.892;-123.962;2023-08-08T08:44:12;1.20;;;0.60;;
51066;SDS011;37112;45.892;-123.962;2023-08-08T08:46:26;1.50;;;0.50;;
51066;SDS011;37112;45.892;-123.962;2023-08-08T08:48:40;0.40;;;0.40;;
51066;SDS011;37112;45.892;-123.962;2023-08-08T08:50:55;2.00;;;0.50;;
51066;SDS011;37112;45.892;-123.962;2023-08-08T08:53:08;0.50;;;0.50;;
51066;SDS011;37112;45.892;-123.962;2023-08-08T08:55:23;0.90;;;0.40;;
51066;SDS011;37112;45.892;-123.962;2023-08-08T08:57:36;0.60;;;0.50;;
51066;SDS011;37112;45.892;-123.962;2023-08-08T08:59:49;0.60;;;0.50;;
51066;SDS011;37112;45.892;-123.962;2023-08-08T09:02:02;1.70;;;0.60;;
51066;SDS011;37112;45.892;-123.962;2023-08-08T09:04:16;0.70;;;0.50;;
51066;SDS011;37112;45.892;-123.962;2023-08-08T09:06:31;0.60;;;0.50;;
51066;SDS011;37112;45.892;-123.962;2023-08-08T09:08:46;1.10;;;0.40;;
51066;SDS011;37112;45.892;-123.962;2023-08-08T09:11:09;2.20;;;0.30;;
51066;SDS011;37112;45.892;-123.962;2023-08-08T09:13:22;1.30;;;0.50;;
51066;SDS011;37112;45.892;-123.962;2023-08-08T09:15:35;0.70;;;0.40;;
51066;SDS011;37112;45.892;-123.962;2023-08-08T09:17:48;0.60;;;0.50;;
51066;SDS011;37112;45.892;-123.962;2023-08-08T09:20:03;0.70;;;0.50;;
51066;SDS011;37112;45.892;-123.962;2023-08-08T09:22:18;1.60;;;0.40;;
51066;SDS011;37112;45.892;-123.962;2023-08-08T09:24:32;0.70;;;0.40;;
51066;SDS011;37112;45.892;-123.962;2023-08-08T09:26:47;0.60;;;0.50;;
51066;SDS011;37112;45.892;-123.962;2023-08-08T09:29:00;1.50;;;0.50;;
51066;SDS011;37112;45.892;-123.962;2023-08-08T09:31:14;0.50;;;0.40;;
51066;SDS011;37112;45.892;-123.962;2023-08-08T09:33:30;0.30;;;0.30;;
51066;SDS011;37112;45.892;-123.962;2023-08-08T09:35:42;18.80;;;4.20;;
51066;SDS011;37112;45.892;-123.962;2023-08-08T09:37:55;27.20;;;4.90;;
51066;SDS011;37112;45.892;-123.962;2023-08-08T09:40:08;17.80;;;3.20;;
51066;SDS011;37112;45.892;-123.962;2023-08-08T09:42:23;10.20;;;2.70;;
51066;SDS011;37112;45.892;-123.962;2023-08-08T09:44:38;13.40;;;2.70;;
51066;SDS011;37112;45.892;-123.962;2023-08-08T09:46:53;14.90;;;2.80;;
51066;SDS011;37112;45.892;-123.962;2023-08-08T09:49:06;7.90;;;1.10;;
51066;SDS011;37112;45.892;-123.962;2023-08-08T09:51:20;1.30;;;0.70;;
51066;SDS011;37112;45.892;-123.962;2023-08-08T09:53:34;1.70;;;0.50;;
51066;SDS011;37112;45.892;-123.962;2023-08-08T09:55:48;1.00;;;0.40;;
51066;SDS011;37112;45.892;-123.962;2023-08-08T09:58:03;0.70;;;0.40;;
51066;SDS011;37112;45.892;-123.962;2023-08-08T10:00:18;1.80;;;0.40;;
51066;SDS011;37112;45.892;-123.962;2023-08-08T10:02:32;0.90;;;0.60;;
51066;SDS011;37112;45.892;-123.962;2023-08-08T10:04:46;1.30;;;0.50;;
51066;SDS011;37112;45.892;-123.962;2023-08-08T10:06:58;0.60;;;0.40;;
51066;SDS011;37112;45.892;-123.962;2023-08-08T10:09:12;1.50;;;0.60;;
51066;SDS011;37112;45.892;-123.962;2023-08-08T10:11:26;2.10;;;0.60;;
51066;SDS011;37112;45.892;-123.962;2023-08-08T10:13:46;1.00;;;0.60;;
51066;SDS011;37112;45.892;-123.962;2023-08-08T10:16:03;0.60;;;0.50;;
51066;SDS011;37112;45.892;-123.962;2023-08-08T10:18:20;2.30;;;0.60;;
51066;SDS011;37112;45.892;-123.962;2023-08-08T10:20:35;1.30;;;0.50;;
51066;SDS011;37112;45.892;-123.962;2023-08-08T10:22:49;1.10;;;0.50;;
51066;SDS011;37112;45.892;-123.962;2023-08-08T10:25:06;2.40;;;0.50;;
51066;SDS011;37112;45.892;-123.962;2023-08-08T10:27:30;1.00;;;0.50;;
51066;SDS011;37112;45.892;-123.962;2023-08-08T10:29:46;2.30;;;0.60;;
51066;SDS011;37112;45.892;-123.962;2023-08-08T10:32:01;1.50;;;0.70;;
51066;SDS011;37112;45.892;-123.962;2023-08-08T10:34:19;1.30;;;0.60;;
51066;SDS011;37112;45.892;-123.962;2023-08-08T10:36:47;2.90;;;0.50;;
51066;SDS011;37112;45.892;-123.962;2023-08-08T10:39:02;0.60;;;0.40;;
51066;SDS011;37112;45.892;-123.962;2023-08-08T10:41:20;0.90;;;0.50;;
51066;SDS011;37112;45.892;-123.962;2023-08-08T10:43:36;0.50;;;0.50;;
51066;SDS011;37112;45.892;-123.962;2023-08-08T10:45:59;2.00;;;0.60;;
51066;SDS011;37112;45.892;-123.962;2023-08-08T10:48:20;1.10;;;0.70;;
51066;SDS011;37112;45.892;-123.962;2023-08-08T10:50:33;2.10;;;0.50;;
51066;SDS011;37112;45.892;-123.962;2023-08-08T10:52:53;3.30;;;0.80;;
51066;SDS011;37112;45.892;-123.962;2023-08-08T10:55:17;0.60;;;0.40;;
51066;SDS011;37112;45.892;-123.962;2023-08-08T10:57:31;1.90;;;0.70;;
51066;SDS011;37112;45.892;-123.962;2023-08-08T10:59:43;1.30;;;0.70;;
51066;SDS011;37112;45.892;-123.962;2023-08-08T11:01:56;1.10;;;0.50;;
51066;SDS011;37112;45.892;-123.962;2023-08-08T11:04:12;1.40;;;0.60;;
51066;SDS011;37112;45.892;-123.962;2023-08-08T11:06:26;2.80;;;0.50;;
51066;SDS011;37112;45.892;-123.962;2023-08-08T11:08:39;1.90;;;0.90;;
51066;SDS011;37112;45.892;-123.962;2023-08-08T11:10:52;1.60;;;0.60;;
51066;SDS011;37112;45.892;-123.962;2023-08-08T11:13:05;1.80;;;0.60;;
51066;SDS011;37112;45.892;-123.962;2023-08-08T11:15:19;1.40;;;0.50;;
51066;SDS011;37112;45.892;-123.962;2023-08-08T11:17:33;1.30;;;0.60;;
51066;SDS011;37112;45.892;-123.962;2023-08-08T11:19:47;3.30;;;0.70;;
51066;SDS011;37112;45.892;-123.962;2023-08-08T11:22:00;2.40;;;0.70;;
51066;SDS011;37112;45.892;-123.962;2023-08-08T11:24:22;1.30;;;0.70;;
51066;SDS011;37112;45.892;-123.962;2023-08-08T11:26:36;1.50;;;0.70;;
51066;SDS011;37112;45.892;-123.962;2023-08-08T11:28:52;2.40;;;0.60;;
51066;SDS011;37112;45.892;-123.962;2023-08-08T11:31:05;2.30;;;0.60;;
51066;SDS011;37112;45.892;-123.962;2023-08-08T11:33:20;1.50;;;0.60;;
51066;SDS011;37112;45.892;-123.962;2023-08-08T11:35:33;3.30;;;0.50;;
51066;SDS011;37112;45.892;-123.962;2023-08-08T11:37:47;1.80;;;0.60;;
51066;SDS011;37112;45.892;-123.962;2023-08-08T11:40:01;1.10;;;0.40;;
51066;SDS011;37112;45.892;-123.962;2023-08-08T11:42:17;1.90;;;0.60;;
51066;SDS011;37112;45.892;-123.962;2023-08-08T11:44:30;1.60;;;0.60;;
51066;SDS011;37112;45.892;-123.962;2023-08-08T11:46:47;0.80;;;0.50;;
51066;SDS011;37112;45.892;-123.962;2023-08-08T11:49:04;1.00;;;0.60;;
51066;SDS011;37112;45.892;-123.962;2023-08-08T11:51:18;1.50;;;0.30;;
51066;SDS011;37112;45.892;-123.962;2023-08-08T11:53:31;0.80;;;0.50;;
51066;SDS011;37112;45.892;-123.962;2023-08-08T11:55:45;1.40;;;0.60;;
51066;SDS011;37112;45.892;-123.962;2023-08-08T11:57:58;1.40;;;0.40;;
51066;SDS011;37112;45.892;-123.962;2023-08-08T12:00:13;0.60;;;0.50;;
51066;SDS011;37112;45.892;-123.962;2023-08-08T12:02:27;0.50;;;0.50;;
51066;SDS011;37112;45.892;-123.962;2023-08-08T12:04:41;0.70;;;0.40;;
51066;SDS011;37112;45.892;-123.962;2023-08-08T12:07:02;1.60;;;0.40;;
51066;SDS011;37112;45.892;-123.962;2023-08-08T12:09:15;0.80;;;0.40;;
51066;SDS011;37112;45.892;-123.962;2023-08-08T12:11:30;3.90;;;0.70;;
51066;SDS011;37112;45.892;-123.962;2023-08-08T12:13:44;2.80;;;0.70;;
51066;SDS011;37112;45.892;-123.962;2023-08-08T12:15:57;4.10;;;0.50;;
51066;SDS011;37112;45.892;-123.962;2023-08-08T12:18:22;24.20;;;5.30;;
51066;SDS011;37112;45.892;-123.962;2023-08-08T12:20:34;21.10;;;3.70;;
51066;SDS011;37112;45.892;-123.962;2023-08-08T12:22:47;21.70;;;3.10;;
51066;SDS011;37112;45.892;-123.962;2023-08-08T12:25:00;24.90;;;3.90;;
51066;SDS011;37112;45.892;-123.962;2023-08-08T12:27:12;25.10;;;3.90;;
51066;SDS011;37112;45.892;-123.962;2023-08-08T12:29:26;18.30;;;3.50;;
51066;SDS011;37112;45.892;-123.962;2023-08-08T12:31:39;13.80;;;2.50;;
51066;SDS011;37112;45.892;-123.962;2023-08-08T12:33:52;12.00;;;2.20;;
51066;SDS011;37112;45.892;-123.962;2023-08-08T12:36:05;13.40;;;2.30;;
51066;SDS011;37112;45.892;-123.962;2023-08-08T12:38:18;15.80;;;3.20;;
51066;SDS011;37112;45.892;-123.962;2023-08-08T12:40:31;14.80;;;3.30;;
51066;SDS011;37112;45.892;-123.962;2023-08-08T12:42:44;15.80;;;2.60;;
51066;SDS011;37112;45.892;-123.962;2023-08-08T12:44:56;10.20;;;2.20;;
51066;SDS011;37112;45.892;-123.962;2023-08-08T12:47:09;17.90;;;2.40;;